Time;durP1;ratioP1;P1;durP2;ratioP2;P2;SDS_P1;SDS_P2;PMS_P1;PMS_P2;Temp;Humidity;BMP_temperature;BMP_pressure;BME280_temperature;BME280_humidity;BME280_pressure;Samples;Min_cycle;Max_cycle;Signal;HPM_P1;HPM_P2
2021/03/01 00:02:20;;;;;;;;;;;;;;;2.81;100.00;100900.50;4993172;28;19925;-82
2021/03/01 00:04:46;;;;;;;;;;;;;;;3.20;100.00;100904.16;4977984;28;19932;-82
2021/03/01 00:07:11;;;;;;;;;;;;;;;2.88;100.00;100899.00;4978185;28;20824;-81
2021/03/01 00:09:36;;;;;;;;;;;;;;;3.16;100.00;100908.28;4979042;28;19921;-80
2021/03/01 00:12:02;;;;;;;;;;;;;;;3.33;100.00;100903.66;4978287;28;19921;-80
2021/03/01 00:14:27;;;;;;;;;;;;;;;3.06;100.00;100903.78;4979027;28;19921;-80
2021/03/01 00:16:53;;;;;;;;;;;;;;;2.83;100.00;100901.41;5010376;28;19968;-80
2021/03/01 00:19:18;;;;;;;;;;;;;;;3.03;100.00;100901.13;4998187;28;19929;-80
2021/03/01 00:21:43;;;;;;;;;;;;;;;3.40;100.00;100897.06;5009903;28;19925;-82
2021/03/01 00:24:09;;;;;;;;;;;;;;;3.17;100.00;100899.84;5010337;28;20076;-82
2021/03/01 00:26:35;;;;;;;;;;;;;;;2.99;100.00;100907.81;4994351;28;20015;-81
2021/03/01 00:29:00;;;;;;;;;;;;;;;2.98;100.00;100910.31;5011536;28;19925;-82
2021/03/01 00:31:25;;;;;;;;;;;;;;;2.92;100.00;100899.13;4997957;28;20293;-82
2021/03/01 00:33:51;;;;;;;;;;;;;;;3.32;100.00;100895.16;5014061;28;20016;-82
2021/03/01 00:36:16;;;;;;;;;;;;;;;2.76;100.00;100902.03;4998513;28;20650;-82
2021/03/01 00:38:41;;;;;;;;;;;;;;;2.47;100.00;100898.59;5012604;28;19931;-81
2021/03/01 00:41:07;;;;;;;;;;;;;;;2.61;100.00;100901.56;5015182;28;19921;-82
2021/03/01 00:43:32;;;;;;;;;;;;;;;2.75;100.00;100895.22;5013232;28;19925;-82
2021/03/01 00:45:57;;;;;;;;;;;;;;;2.03;100.00;100892.94;4998657;28;19931;-82
2021/03/01 00:48:23;;;;;;;;;;;;;;;2.61;100.00;100888.84;4996348;28;19984;-82
2021/03/01 00:50:48;;;;;;;;;;;;;;;3.61;100.00;100887.47;5009895;28;20365;-83
2021/03/01 00:53:26;;;;;;;;;;;;;;;3.69;100.00;100883.41;4996604;28;20553;-82
2021/03/01 00:55:51;;;;;;;;;;;;;;;3.19;100.00;100890.53;5013479;28;19929;-82
2021/03/01 00:58:17;;;;;;;;;;;;;;;2.54;100.00;100887.78;5012791;28;20483;-81
2021/03/01 01:00:43;;;;;;;;;;;;;;;3.34;100.00;100888.44;4997135;28;19948;-80
2021/03/01 01:03:08;;;;;;;;;;;;;;;3.33;100.00;100886.72;4996534;28;20047;-82
2021/03/01 01:05:33;;;;;;;;;;;;;;;3.25;100.00;100882.22;5013424;28;19917;-82
2021/03/01 01:07:58;;;;;;;;;;;;;;;3.82;100.00;100876.13;4999693;28;19948;-82
2021/03/01 01:10:24;;;;;;;;;;;;;;;3.39;100.00;100880.91;5013028;28;20573;-82
2021/03/01 01:12:49;;;;;;;;;;;;;;;3.86;100.00;100878.78;5011984;28;19925;-81
2021/03/01 01:15:14;;;;;;;;;;;;;;;3.30;100.00;100886.63;4997414;28;19921;-82
2021/03/01 01:17:40;;;;;;;;;;;;;;;3.36;100.00;100880.84;4996580;28;19988;-81
2021/03/01 01:20:09;;;;;;;;;;;;;;;3.35;100.00;100881.66;4996947;28;19925;-82
2021/03/01 01:22:34;;;;;;;;;;;;;;;4.09;99.01;100876.78;5013692;28;19925;-82
2021/03/01 01:24:59;;;;;;;;;;;;;;;4.29;97.03;100873.84;5013064;28;20393;-81
2021/03/01 01:27:25;;;;;;;;;;;;;;;4.67;95.64;100872.19;5012728;28;19972;-82
2021/03/01 01:29:50;;;;;;;;;;;;;;;4.06;96.20;100869.09;5013462;28;19932;-82
2021/03/01 01:32:15;;;;;;;;;;;;;;;3.16;100.00;100872.66;5012986;28;20048;-82
2021/03/01 01:34:40;;;;;;;;;;;;;;;3.35;100.00;100869.81;5013265;28;20384;-81
2021/03/01 01:37:06;;;;;;;;;;;;;;;3.06;100.00;100870.69;4996028;28;19983;-82
2021/03/01 01:39:31;;;;;;;;;;;;;;;2.91;100.00;100871.94;5010959;28;19929;-82
2021/03/01 01:41:56;;;;;;;;;;;;;;;4.05;98.16;100859.69;5011436;28;20396;-81
2021/03/01 01:44:22;;;;;;;;;;;;;;;3.76;97.24;100857.31;5013100;28;20377;-82
2021/03/01 01:46:47;;;;;;;;;;;;;;;3.41;98.64;100868.25;4996148;28;19964;-82
2021/03/01 01:49:12;;;;;;;;;;;;;;;3.01;100.00;100872.22;5012594;28;19925;-82
2021/03/01 01:51:38;;;;;;;;;;;;;;;2.54;100.00;100874.22;5012460;28;20204;-82
2021/03/01 01:54:03;;;;;;;;;;;;;;;2.97;100.00;100868.72;4996641;28;20035;-82
2021/03/01 01:56:29;;;;;;;;;;;;;;;3.47;99.58;100864.19;5012403;28;19921;-82
2021/03/01 01:58:54;;;;;;;;;;;;;;;3.19;99.65;100870.19;5012743;28;19921;-82
2021/03/01 02:01:20;;;;;;;;;;;;;;;2.46;100.00;100868.88;5012585;28;20638;-82
2021/03/01 02:03:49;;;;;;;;;;;;;;;2.72;100.00;100870.53;4995854;28;19921;-82
2021/03/01 02:06:14;;;;;;;;;;;;;;;2.19;100.00;100861.25;5012644;28;20086;-82
2021/03/01 02:08:47;;;;;;;;;;;;;;;2.29;100.00;100869.22;5012861;28;19921;-82
2021/03/01 02:11:16;;;;;;;;;;;;;;;2.24;100.00;100877.53;5012331;28;19925;-82
2021/03/01 02:13:57;;;;;;;;;;;;;;;2.09;100.00;100876.19;5011153;28;19924;-81
2021/03/01 02:16:30;;;;;;;;;;;;;;;1.99;100.00;100874.19;5011875;28;20384;-82
2021/03/01 02:18:55;;;;;;;;;;;;;;;1.58;100.00;100880.41;4995552;28;19924;-83
2021/03/01 02:21:20;;;;;;;;;;;;;;;2.32;100.00;100867.59;4995325;28;19943;-82
2021/03/01 02:23:46;;;;;;;;;;;;;;;2.86;100.00;100868.41;5011792;28;20751;-82
2021/03/01 02:26:15;;;;;;;;;;;;;;;2.77;100.00;100867.28;5011502;28;19925;-82
2021/03/01 02:28:42;;;;;;;;;;;;;;;2.66;100.00;100869.50;5012376;28;20034;-82
2021/03/01 02:31:08;;;;;;;;;;;;;;;2.77;99.13;100863.06;4992513;28;20404;-82
2021/03/01 02:33:38;;;;;;;;;;;;;;;3.10;98.15;100857.19;4996104;28;19929;-82
2021/03/01 02:36:08;;;;;;;;;;;;;;;2.72;99.73;100850.19;5010355;28;19983;-81
2021/03/01 02:38:33;;;;;;;;;;;;;;;3.12;97.61;100847.91;5012085;28;19928;-81
2021/03/01 02:40:58;;;;;;;;;;;;;;;3.28;96.79;100847.53;5012464;28;19925;-82
2021/03/01 02:43:24;;;;;;;;;;;;;;;2.99;97.60;100844.19;5011302;28;19966;-82
2021/03/01 02:45:49;;;;;;;;;;;;;;;2.92;98.51;100837.19;5010921;28;19932;-82
2021/03/01 02:48:15;;;;;;;;;;;;;;;2.62;100.00;100847.31;5012105;28;19924;-82
2021/03/01 02:50:40;;;;;;;;;;;;;;;3.45;98.11;100835.25;5012209;28;20432;-82
2021/03/01 02:53:06;;;;;;;;;;;;;;;3.21;97.45;100829.50;4995350;28;21010;-82
2021/03/01 02:55:31;;;;;;;;;;;;;;;2.86;99.74;100837.00;5010873;28;19968;-82
2021/03/01 02:57:57;;;;;;;;;;;;;;;3.00;99.08;100835.72;4995227;28;20402;-82
2021/03/01 03:00:22;;;;;;;;;;;;;;;3.74;96.22;100833.47;5011751;28;19921;-81
2021/03/01 03:02:48;;;;;;;;;;;;;;;3.03;97.46;100833.25;5011203;28;20921;-82
2021/03/01 03:05:14;;;;;;;;;;;;;;;3.43;97.98;100831.81;5011844;28;19928;-82
2021/03/01 03:07:40;;;;;;;;;;;;;;;3.50;98.19;100837.91;4994924;28;19921;-82
2021/03/01 03:10:06;;;;;;;;;;;;;;;3.31;97.46;100832.34;4995611;28;20293;-82
2021/03/01 03:12:32;;;;;;;;;;;;;;;3.56;97.23;100822.81;4995016;28;20409;-82
2021/03/01 03:14:57;;;;;;;;;;;;;;;3.53;97.03;100830.34;4995267;28;19928;-82
2021/03/01 03:17:22;;;;;;;;;;;;;;;3.08;98.79;100829.19;4995002;28;19960;-81
2021/03/01 03:19:48;;;;;;;;;;;;;;;3.90;96.04;100823.63;4992644;28;19936;-81
2021/03/01 03:22:13;;;;;;;;;;;;;;;3.70;95.60;100826.56;5011068;28;19960;-81
2021/03/01 03:24:38;;;;;;;;;;;;;;;3.36;97.14;100824.81;5010863;28;20008;-81
2021/03/01 03:27:04;;;;;;;;;;;;;;;3.52;97.64;100821.84;5012149;28;19925;-80
2021/03/01 03:29:30;;;;;;;;;;;;;;;3.62;96.71;100829.72;5010248;28;19925;-81
2021/03/01 03:31:55;;;;;;;;;;;;;;;3.64;94.60;100826.41;5011912;28;19957;-82
2021/03/01 03:34:20;;;;;;;;;;;;;;;2.57;100.00;100833.63;5011958;28;19929;-81
2021/03/01 03:36:48;;;;;;;;;;;;;;;2.95;100.00;100821.16;5011579;28;20215;-82
2021/03/01 03:39:13;;;;;;;;;;;;;;;2.84;100.00;100819.16;5010713;28;19928;-82
2021/03/01 03:41:39;;;;;;;;;;;;;;;2.74;100.00;100827.34;5010243;28;20496;-81
2021/03/01 03:44:05;;;;;;;;;;;;;;;3.07;99.21;100812.16;4994788;28;19971;-82
2021/03/01 03:46:30;;;;;;;;;;;;;;;2.73;100.00;100820.53;5012109;28;19980;-82
2021/03/01 03:48:55;;;;;;;;;;;;;;;3.11;99.27;100818.22;5010114;28;19953;-82
2021/03/01 03:51:21;;;;;;;;;;;;;;;3.11;98.11;100816.53;4995137;28;20617;-82
2021/03/01 03:53:50;;;;;;;;;;;;;;;3.62;97.56;100814.44;5010064;28;19979;-82
2021/03/01 03:56:16;;;;;;;;;;;;;;;3.30;97.18;100815.31;4994382;28;19968;-82
2021/03/01 03:58:46;;;;;;;;;;;;;;;3.37;97.59;100813.81;5010913;28;19921;-82
2021/03/01 04:01:14;;;;;;;;;;;;;;;2.63;100.00;100813.47;4994643;28;20415;-81
2021/03/01 04:03:41;;;;;;;;;;;;;;;2.71;100.00;100812.88;5010759;28;20000;-81
2021/03/01 04:06:06;;;;;;;;;;;;;;;2.51;100.00;100819.91;5013183;28;19925;-82
2021/03/01 04:08:31;;;;;;;;;;;;;;;3.09;100.00;100815.63;4997081;28;19939;-82
2021/03/01 04:10:57;;;;;;;;;;;;;;;2.89;99.13;100817.59;4996760;28;19925;-82
2021/03/01 04:13:24;;;;;;;;;;;;;;;2.95;100.00;100816.06;5013439;28;19925;-82
2021/03/01 04:15:49;;;;;;;;;;;;;;;2.86;99.88;100814.97;5014693;28;19932;-82
2021/03/01 04:18:22;;;;;;;;;;;;;;;3.02;99.08;100823.91;5013096;28;19925;-82
2021/03/01 04:20:48;;;;;;;;;;;;;;;3.04;99.47;100821.41;5013530;28;19940;-82
2021/03/01 04:23:13;;;;;;;;;;;;;;;2.65;100.00;100822.84;5014439;28;19956;-82
2021/03/01 04:25:39;;;;;;;;;;;;;;;2.78;100.00;100824.06;5013593;28;20377;-81
2021/03/01 04:28:04;;;;;;;;;;;;;;;2.80;100.00;100824.09;4997722;28;19975;-82
2021/03/01 04:30:30;;;;;;;;;;;;;;;3.23;98.57;100823.63;5013177;28;19925;-82
2021/03/01 04:32:55;;;;;;;;;;;;;;;2.66;100.00;100831.34;5013879;28;21096;-82
2021/03/01 04:35:20;;;;;;;;;;;;;;;2.68;100.00;100832.25;4997782;28;19920;-82
2021/03/01 04:37:46;;;;;;;;;;;;;;;3.04;100.00;100831.59;5012969;28;19940;-82
2021/03/01 04:40:11;;;;;;;;;;;;;;;2.62;100.00;100838.03;4997728;28;20616;-82
2021/03/01 04:42:37;;;;;;;;;;;;;;;3.11;98.64;100839.44;5029689;28;19935;-83
2021/03/01 04:45:03;;;;;;;;;;;;;;;3.13;98.68;100832.69;5013294;28;20084;-82
2021/03/01 04:47:30;;;;;;;;;;;;;;;3.32;97.46;100839.16;5014227;28;20016;-82
2021/03/01 04:49:55;;;;;;;;;;;;;;;2.27;100.00;100844.56;5013609;28;19936;-82
2021/03/01 04:52:20;;;;;;;;;;;;;;;2.17;100.00;100838.34;5013682;28;19928;-82
2021/03/01 04:54:46;;;;;;;;;;;;;;;2.25;100.00;100841.13;5013012;28;20325;-82
2021/03/01 04:57:11;;;;;;;;;;;;;;;1.58;100.00;100847.41;5013599;28;19936;-82
2021/03/01 04:59:37;;;;;;;;;;;;;;;1.90;100.00;100845.94;5011523;28;19985;-80
2021/03/01 05:02:02;;;;;;;;;;;;;;;2.28;100.00;100842.09;5012726;28;19931;-81
2021/03/01 05:04:28;;;;;;;;;;;;;;;2.46;100.00;100836.72;5013926;28;19947;-80
2021/03/01 05:06:55;;;;;;;;;;;;;;;2.53;100.00;100836.88;4995649;28;19929;-81
2021/03/01 05:09:20;;;;;;;;;;;;;;;2.61;100.00;100836.28;4997016;28;19931;-81
2021/03/01 05:11:46;;;;;;;;;;;;;;;2.45;100.00;100845.13;4995448;28;19925;-80
2021/03/01 05:14:11;;;;;;;;;;;;;;;2.62;100.00;100852.41;5013588;28;19925;-80
2021/03/01 05:16:36;;;;;;;;;;;;;;;3.00;99.02;100839.94;4996293;28;19964;-81
2021/03/01 05:19:02;;;;;;;;;;;;;;;3.20;99.35;100843.91;4996778;28;20618;-80
2021/03/01 05:21:27;;;;;;;;;;;;;;;2.84;98.73;100838.66;5012783;28;20593;-80
2021/03/01 05:23:53;;;;;;;;;;;;;;;3.17;98.08;100828.56;5013647;28;19943;-81
2021/03/01 05:26:18;;;;;;;;;;;;;;;2.63;100.00;100831.25;5012514;28;19971;-80
2021/03/01 05:28:44;;;;;;;;;;;;;;;2.38;100.00;100832.19;5013565;28;19921;-80
2021/03/01 05:31:09;;;;;;;;;;;;;;;2.95;100.00;100831.34;4996197;28;19936;-80
2021/03/01 05:33:35;;;;;;;;;;;;;;;3.04;98.75;100834.13;5013986;28;19921;-80
2021/03/01 05:36:00;;;;;;;;;;;;;;;2.98;99.08;100829.72;5013400;28;19932;-80
2021/03/01 05:38:26;;;;;;;;;;;;;;;2.54;99.93;100836.06;5013637;28;19923;-80
2021/03/01 05:40:51;;;;;;;;;;;;;;;2.92;99.79;100822.78;5012796;28;19925;-80
2021/03/01 05:43:18;;;;;;;;;;;;;;;2.54;100.00;100829.31;4997099;28;19921;-80
2021/03/01 05:45:43;;;;;;;;;;;;;;;2.91;99.17;100843.94;4994194;28;19974;-81
2021/03/01 05:48:09;;;;;;;;;;;;;;;3.10;98.69;100839.38;5013091;28;19935;-81
2021/03/01 05:50:35;;;;;;;;;;;;;;;2.49;100.00;100839.34;5010510;28;20012;-81
2021/03/01 05:53:00;;;;;;;;;;;;;;;3.38;97.78;100835.06;5012722;28;19932;-80
2021/03/01 05:55:26;;;;;;;;;;;;;;;2.64;100.00;100844.00;5012936;28;19928;-81
2021/03/01 05:57:51;;;;;;;;;;;;;;;2.67;100.00;100836.47;4996194;28;19921;-80
2021/03/01 06:00:16;;;;;;;;;;;;;;;2.04;100.00;100842.16;5013172;28;20048;-81
2021/03/01 06:02:42;;;;;;;;;;;;;;;2.31;100.00;100846.41;5012601;28;19951;-80
2021/03/01 06:05:07;;;;;;;;;;;;;;;3.06;100.00;100840.13;5012357;28;19928;-81
2021/03/01 06:07:33;;;;;;;;;;;;;;;2.76;99.55;100845.19;5012442;28;19921;-81
2021/03/01 06:09:58;;;;;;;;;;;;;;;2.58;100.00;100845.50;4996473;28;19940;-80
2021/03/01 06:12:23;;;;;;;;;;;;;;;2.41;99.93;100845.84;5012590;28;20008;-82
2021/03/01 06:14:49;;;;;;;;;;;;;;;2.37;100.00;100840.63;4996110;28;19921;-81
2021/03/01 06:17:15;;;;;;;;;;;;;;;2.42;100.00;100837.44;4995601;28;19921;-81
2021/03/01 06:19:50;;;;;;;;;;;;;;;2.34;100.00;100838.84;5011837;28;19925;-81
2021/03/01 06:22:16;;;;;;;;;;;;;;;2.39;100.00;100844.94;5008517;28;19975;-82
2021/03/01 06:24:42;;;;;;;;;;;;;;;2.32;100.00;100842.19;4995173;28;19925;-82
2021/03/01 06:27:11;;;;;;;;;;;;;;;2.50;100.00;100842.75;4992449;28;20016;-82
2021/03/01 06:29:55;;;;;;;;;;;;;;;2.53;99.85;100841.97;4988576;28;19983;-82
2021/03/01 06:32:20;;;;;;;;;;;;;;;2.01;100.00;100842.06;5011559;28;19959;-82
2021/03/01 06:34:45;;;;;;;;;;;;;;;2.13;100.00;100843.28;5011442;28;19921;-82
2021/03/01 06:37:12;;;;;;;;;;;;;;;2.16;100.00;100846.78;5010510;28;20808;-81
2021/03/01 06:39:41;;;;;;;;;;;;;;;1.91;100.00;100850.19;5008887;28;20047;-81
2021/03/01 06:42:30;;;;;;;;;;;;;;;1.99;100.00;100843.69;5001645;28;20794;-81
2021/03/01 06:44:59;;;;;;;;;;;;;;;2.01;100.00;100847.16;5004483;28;20031;-81
2021/03/01 06:47:43;;;;;;;;;;;;;;;1.77;100.00;100846.34;5011318;28;20553;-82
2021/03/01 06:50:35;;;;;;;;;;;;;;;2.70;100.00;100845.88;5011760;28;19928;-81
2021/03/01 06:53:00;;;;;;;;;;;;;;;2.66;100.00;100849.16;5011601;28;19925;-82
2021/03/01 06:55:25;;;;;;;;;;;;;;;3.04;98.12;100859.59;5011553;28;19929;-82
2021/03/01 06:57:51;;;;;;;;;;;;;;;2.74;99.23;100852.78;4994689;28;20389;-82
2021/03/01 07:00:21;;;;;;;;;;;;;;;2.38;100.00;100855.94;5006705;28;19968;-82
2021/03/01 07:02:46;;;;;;;;;;;;;;;2.49;100.00;100861.38;5007476;28;19925;-82
2021/03/01 07:05:11;;;;;;;;;;;;;;;2.67;100.00;100858.53;4995332;28;19964;-83
2021/03/01 07:07:37;;;;;;;;;;;;;;;2.45;100.00;100855.31;4992262;28;20467;-82
2021/03/01 07:10:06;;;;;;;;;;;;;;;2.79;99.42;100846.16;5008814;28;19921;-83
2021/03/01 07:12:38;;;;;;;;;;;;;;;2.57;100.00;100856.50;5008016;28;20391;-82
2021/03/01 07:15:05;;;;;;;;;;;;;;;2.03;100.00;100859.88;4992104;28;20554;-82
2021/03/01 07:17:30;;;;;;;;;;;;;;;2.50;100.00;100863.06;5010079;28;19948;-82
2021/03/01 07:19:56;;;;;;;;;;;;;;;2.11;100.00;100862.69;4990914;28;20396;-82
2021/03/01 07:22:21;;;;;;;;;;;;;;;2.21;100.00;100854.53;4992466;28;19921;-82
2021/03/01 07:24:46;;;;;;;;;;;;;;;2.20;100.00;100858.75;5009563;28;19921;-91
2021/03/01 07:27:12;;;;;;;;;;;;;;;2.31;100.00;100854.03;5013958;28;19928;-88
2021/03/01 07:29:37;;;;;;;;;;;;;;;2.77;100.00;100862.19;4996406;28;19951;-83
2021/03/01 07:32:03;;;;;;;;;;;;;;;3.23;97.60;100851.63;5010067;28;20365;-84
2021/03/01 07:34:29;;;;;;;;;;;;;;;3.45;97.08;100849.69;4993020;28;19932;-84
2021/03/01 07:36:55;;;;;;;;;;;;;;;2.98;97.52;100856.84;4992470;28;20744;-85
2021/03/01 07:39:20;;;;;;;;;;;;;;;3.00;97.79;100860.31;5008648;28;20014;-84
2021/03/01 07:41:46;;;;;;;;;;;;;;;2.57;99.15;100853.97;4997609;28;20015;-85
2021/03/01 07:44:11;;;;;;;;;;;;;;;3.11;98.91;100848.75;5010826;28;20344;-84
2021/03/01 07:46:40;;;;;;;;;;;;;;;2.71;99.52;100855.22;5012454;28;20605;-86
2021/03/01 07:49:05;;;;;;;;;;;;;;;2.88;100.00;100855.75;4996426;28;19935;-84
2021/03/01 07:51:47;;;;;;;;;;;;;;;3.03;99.68;100861.25;4995759;28;19929;-84
2021/03/01 07:54:14;;;;;;;;;;;;;;;2.93;99.68;100859.28;5012861;28;19921;-85
2021/03/01 07:56:40;;;;;;;;;;;;;;;3.27;97.93;100861.09;4997180;28;20572;-84
2021/03/01 07:59:06;;;;;;;;;;;;;;;2.55;100.00;100860.69;5001435;28;19925;-84
2021/03/01 08:01:32;;;;;;;;;;;;;;;2.69;100.00;100861.94;4992771;28;19925;-82
2021/03/01 08:03:58;;;;;;;;;;;;;;;3.54;98.89;100860.13;5011230;28;19948;-85
2021/03/01 08:06:24;;;;;;;;;;;;;;;2.99;100.00;100863.66;5011335;28;20078;-83
2021/03/01 08:08:50;;;;;;;;;;;;;;;3.45;100.00;100859.88;4995540;28;19921;-84
2021/03/01 08:11:16;;;;;;;;;;;;;;;2.88;100.00;100856.59;5009893;28;19921;-83
2021/03/01 08:13:41;;;;;;;;;;;;;;;3.25;100.00;100857.63;5009640;28;20020;-82
2021/03/01 08:16:16;;;;;;;;;;;;;;;3.12;100.00;100856.44;5009739;28;19921;-83
2021/03/01 08:18:52;;;;;;;;;;;;;;;2.59;100.00;100857.41;4994014;28;19925;-84
2021/03/01 08:21:17;;;;;;;;;;;;;;;2.85;100.00;100860.72;4976854;28;20047;-84
2021/03/01 08:23:42;;;;;;;;;;;;;;;2.59;100.00;100867.59;4975285;28;20459;-83
2021/03/01 08:26:10;;;;;;;;;;;;;;;2.77;100.00;100860.50;4994208;28;19921;-84
2021/03/01 08:28:36;;;;;;;;;;;;;;;3.04;100.00;100867.22;4991283;28;20393;-84
2021/03/01 08:31:07;;;;;;;;;;;;;;;3.26;100.00;100861.91;5009718;28;20371;-84
2021/03/01 08:33:32;;;;;;;;;;;;;;;2.57;100.00;100861.59;4992902;28;20392;-84
2021/03/01 08:36:00;;;;;;;;;;;;;;;3.00;100.00;100866.25;4971682;28;19917;-84
2021/03/01 08:38:53;;;;;;;;;;;;;;;3.01;100.00;100862.91;4989795;28;20344;-83
2021/03/01 08:41:19;;;;;;;;;;;;;;;2.95;100.00;100866.97;4991229;28;20021;-84
2021/03/01 08:43:48;;;;;;;;;;;;;;;2.90;100.00;100865.13;4974439;28;19983;-84
2021/03/01 08:46:13;;;;;;;;;;;;;;;2.94;100.00;100863.53;4974173;28;20721;-84
2021/03/01 08:48:39;;;;;;;;;;;;;;;3.68;100.00;100858.78;5009920;28;19922;-84
2021/03/01 08:51:05;;;;;;;;;;;;;;;2.75;100.00;100859.59;4989394;28;20163;-83
2021/03/01 08:53:30;;;;;;;;;;;;;;;3.11;100.00;100862.34;4990750;28;20188;-84
2021/03/01 08:55:56;;;;;;;;;;;;;;;3.38;100.00;100874.13;4974712;28;19932;-84
2021/03/01 08:58:22;;;;;;;;;;;;;;;3.49;100.00;100877.81;4992446;28;21201;-84
2021/03/01 09:00:51;;;;;;;;;;;;;;;2.63;100.00;100882.13;4990017;28;19928;-84
2021/03/01 09:03:17;;;;;;;;;;;;;;;2.83;100.00;100873.41;4976080;28;20032;-84
2021/03/01 09:05:44;;;;;;;;;;;;;;;3.20;100.00;100874.47;4991490;28;20011;-84
2021/03/01 09:08:09;;;;;;;;;;;;;;;3.41;100.00;100868.25;4976091;28;20519;-84
2021/03/01 09:10:36;;;;;;;;;;;;;;;3.65;100.00;100868.91;4973040;28;19925;-84
2021/03/01 09:13:01;;;;;;;;;;;;;;;3.49;100.00;100864.19;4977350;28;19940;-85
2021/03/01 09:15:26;;;;;;;;;;;;;;;3.85;100.00;100865.97;4972914;28;20211;-88
2021/03/01 09:17:52;;;;;;;;;;;;;;;3.82;100.00;100866.78;4984001;28;19932;-88
2021/03/01 09:20:17;;;;;;;;;;;;;;;2.89;100.00;100867.63;4934377;28;1447639;-84
2021/03/01 09:22:43;;;;;;;;;;;;;;;2.88;100.00;100871.88;4992640;28;19969;-84
2021/03/01 09:25:35;;;;;;;;;;;;;;;3.07;100.00;100872.38;5007584;28;19921;-84
2021/03/01 09:28:00;;;;;;;;;;;;;;;3.10;100.00;100862.28;5009340;28;20811;-83
2021/03/01 09:30:26;;;;;;;;;;;;;;;3.07;100.00;100862.22;5009023;28;19922;-83
2021/03/01 09:32:58;;;;;;;;;;;;;;;3.08;100.00;100861.38;4992331;28;19979;-84
2021/03/01 09:35:24;;;;;;;;;;;;;;;3.23;100.00;100869.44;4991846;28;20330;-84
2021/03/01 09:37:50;;;;;;;;;;;;;;;3.31;100.00;100862.91;4995670;28;19939;-84
2021/03/01 09:40:19;;;;;;;;;;;;;;;3.23;100.00;100864.34;4992303;28;20179;-84
2021/03/01 09:42:51;;;;;;;;;;;;;;;3.54;100.00;100857.56;5007468;28;19928;-83
2021/03/01 09:45:17;;;;;;;;;;;;;;;4.13;100.00;100857.34;5007322;28;19925;-83
2021/03/01 09:47:42;;;;;;;;;;;;;;;4.32;99.34;100850.97;5006941;28;19925;-83
2021/03/01 09:50:08;;;;;;;;;;;;;;;3.97;99.64;100856.13;4991570;28;19925;-83
2021/03/01 09:52:33;;;;;;;;;;;;;;;4.46;99.76;100857.25;4988747;28;20308;-83
2021/03/01 09:54:58;;;;;;;;;;;;;;;4.40;100.00;100846.91;5006707;28;19921;-83
2021/03/01 09:57:27;;;;;;;;;;;;;;;3.79;100.00;100846.31;4989270;28;20130;-83
2021/03/01 09:59:53;;;;;;;;;;;;;;;4.44;100.00;100843.59;5004209;28;19925;-83
2021/03/01 10:02:24;;;;;;;;;;;;;;;4.52;99.73;100839.53;5006089;28;19921;-83
2021/03/01 10:04:51;;;;;;;;;;;;;;;4.08;100.00;100843.59;4992246;28;20289;-82
2021/03/01 10:07:16;;;;;;;;;;;;;;;3.69;100.00;100847.75;4991394;28;19925;-83
2021/03/01 10:09:41;;;;;;;;;;;;;;;4.26;100.00;100843.19;5010942;28;19975;-83
2021/03/01 10:12:07;;;;;;;;;;;;;;;4.38;100.00;100848.59;4991594;28;20008;-83
2021/03/01 10:14:32;;;;;;;;;;;;;;;3.98;100.00;100852.72;4990972;28;19972;-84
2021/03/01 10:16:57;;;;;;;;;;;;;;;4.03;100.00;100840.94;5007505;28;19921;-83
2021/03/01 10:19:23;;;;;;;;;;;;;;;4.44;100.00;100847.84;4991243;28;19925;-84
2021/03/01 10:21:48;;;;;;;;;;;;;;;4.78;100.00;100840.09;5008226;28;19928;-84
2021/03/01 10:24:14;;;;;;;;;;;;;;;5.30;96.92;100840.28;5007755;28;19932;-84
2021/03/01 10:26:52;;;;;;;;;;;;;;;4.81;99.29;100839.28;5007615;28;20340;-83
2021/03/01 10:29:17;;;;;;;;;;;;;;;5.37;97.54;100831.06;5008450;28;20627;-84
2021/03/01 10:31:42;;;;;;;;;;;;;;;4.91;98.62;100843.78;4992097;28;19925;-84
2021/03/01 10:34:13;;;;;;;;;;;;;;;4.41;98.74;100843.53;5007789;28;19975;-83
2021/03/01 10:36:58;;;;;;;;;;;;;;;5.29;99.33;100836.03;4993042;28;19968;-90
2021/03/01 10:39:26;;;;;;;;;;;;;;;5.40;98.59;100836.19;5010017;28;19921;-84
2021/03/01 10:41:53;;;;;;;;;;;;;;;6.26;95.48;100828.31;5009007;28;19925;-83
2021/03/01 10:44:26;;;;;;;;;;;;;;;5.88;94.34;100835.34;5005498;28;19922;-82
2021/03/01 10:46:51;;;;;;;;;;;;;;;6.34;94.30;100836.13;4991084;28;19964;-83
2021/03/01 10:49:16;;;;;;;;;;;;;;;6.24;96.00;100835.09;5005624;28;19996;-83
2021/03/01 10:51:42;;;;;;;;;;;;;;;5.52;99.85;100830.44;5008163;28;19944;-83
2021/03/01 10:54:08;;;;;;;;;;;;;;;5.56;99.42;100842.44;4991753;28;19925;-84
2021/03/01 10:56:33;;;;;;;;;;;;;;;5.51;98.59;100834.72;5007277;28;19921;-84
2021/03/01 10:58:58;;;;;;;;;;;;;;;5.24;98.23;100835.94;5007912;28;19921;-83
2021/03/01 11:01:31;;;;;;;;;;;;;;;5.57;99.12;100836.53;5007384;28;19917;-84
2021/03/01 11:03:56;;;;;;;;;;;;;;;5.32;99.84;100837.78;5006766;28;20008;-82
2021/03/01 11:06:21;;;;;;;;;;;;;;;5.93;99.96;100832.84;4992002;28;20329;-83
2021/03/01 11:08:46;;;;;;;;;;;;;;;5.57;98.44;100828.88;5007934;28;19925;-83
2021/03/01 11:11:12;;;;;;;;;;;;;;;5.50;98.65;100829.59;5008111;28;20285;-82
2021/03/01 11:13:37;;;;;;;;;;;;;;;6.67;96.91;100817.78;4990941;28;19921;-83
2021/03/01 11:16:02;;;;;;;;;;;;;;;6.38;94.83;100831.88;5008503;28;19975;-83
2021/03/01 11:18:28;;;;;;;;;;;;;;;6.62;94.90;100822.00;4989530;28;19928;-83
2021/03/01 11:20:53;;;;;;;;;;;;;;;6.58;94.84;100820.22;5005937;28;19925;-83
2021/03/01 11:23:19;;;;;;;;;;;;;;;5.96;99.88;100820.19;4992791;28;19927;-84
2021/03/01 11:25:44;;;;;;;;;;;;;;;6.16;99.21;100813.66;5010581;28;19921;-83
2021/03/01 11:28:11;;;;;;;;;;;;;;;6.11;99.57;100812.72;4992807;28;19929;-84
2021/03/01 11:30:36;;;;;;;;;;;;;;;6.50;98.14;100811.59;4991522;28;20048;-85
2021/03/01 11:33:04;;;;;;;;;;;;;;;6.26;98.96;100807.84;5007250;28;19921;-83
2021/03/01 11:35:29;;;;;;;;;;;;;;;6.09;98.58;100814.41;4993473;28;21192;-83
2021/03/01 11:37:54;;;;;;;;;;;;;;;6.28;97.98;100801.06;5008150;28;20024;-83
2021/03/01 11:40:20;;;;;;;;;;;;;;;6.24;98.54;100798.44;5007965;28;20480;-83
2021/03/01 11:42:45;;;;;;;;;;;;;;;6.01;98.65;100796.38;5004714;28;19925;-83
2021/03/01 11:45:11;;;;;;;;;;;;;;;6.54;97.95;100797.97;4999328;28;19932;-83
2021/03/01 11:47:36;;;;;;;;;;;;;;;6.17;99.70;100797.47;5008012;28;20362;-83
2021/03/01 11:50:01;;;;;;;;;;;;;;;6.18;97.86;100799.22;4977438;28;21060;-83
2021/03/01 11:52:28;;;;;;;;;;;;;;;6.78;97.23;100788.91;4993505;28;19927;-83
2021/03/01 11:54:54;;;;;;;;;;;;;;;6.45;96.35;100777.38;5000794;28;20451;-84
2021/03/01 11:57:19;;;;;;;;;;;;;;;6.80;96.16;100788.09;5010475;28;19983;-83
2021/03/01 11:59:47;;;;;;;;;;;;;;;6.64;95.84;100792.16;4994929;28;20439;-84
2021/03/01 12:02:12;;;;;;;;;;;;;;;6.49;97.53;100779.16;4992261;28;19921;-84
2021/03/01 12:04:38;;;;;;;;;;;;;;;6.55;96.94;100786.94;5011036;28;19952;-84
2021/03/01 12:07:03;;;;;;;;;;;;;;;6.67;97.59;100784.50;5007906;28;19983;-84
2021/03/01 12:09:28;;;;;;;;;;;;;;;7.02;95.67;100771.25;5009951;28;20299;-82
2021/03/01 12:11:54;;;;;;;;;;;;;;;7.03;94.00;100778.09;5008704;28;19917;-82
2021/03/01 12:14:19;;;;;;;;;;;;;;;6.66;95.17;100777.69;5012887;28;20678;-83
2021/03/01 12:16:44;;;;;;;;;;;;;;;7.13;94.76;100768.81;4992534;28;19943;-83
2021/03/01 12:19:09;;;;;;;;;;;;;;;7.07;93.58;100768.75;5008901;28;20397;-87
2021/03/01 12:21:35;;;;;;;;;;;;;;;7.41;93.98;100764.84;5009285;28;19975;-83
2021/03/01 12:24:00;;;;;;;;;;;;;;;8.13;92.51;100762.81;5011537;28;20019;-84
2021/03/01 12:26:26;;;;;;;;;;;;;;;7.94;93.12;100763.56;4996948;28;19928;-84
2021/03/01 12:28:51;;;;;;;;;;;;;;;7.08;93.17;100761.06;5015018;28;20265;-83
2021/03/01 12:31:16;;;;;;;;;;;;;;;7.39;93.15;100751.16;5012987;28;20831;-83
2021/03/01 12:33:41;;;;;;;;;;;;;;;7.52;93.52;100749.53;4996611;28;20709;-83
2021/03/01 12:36:07;;;;;;;;;;;;;;;7.72;92.67;100744.56;5004706;28;19918;-83
2021/03/01 12:38:32;;;;;;;;;;;;;;;7.33;92.86;100741.69;5013807;28;20445;-84